Time;durP1;ratioP1;P1;durP2;ratioP2;P2;SDS_P1;SDS_P2;PMS_P1;PMS_P2;Temp;Humidity;BMP_temperature;BMP_pressure;BME280_temperature;BME280_humidity;BME280_pressure;Samples;Min_cycle;Max_cycle;Signal;HPM_P1;HPM_P2
2021/08/10 00:00:45;;;;;;;4.90;2.67;;;24.00;51.40;;;;;;5028393;28;20932;-50
2021/08/10 00:03:10;;;;;;;3.17;2.90;;;23.90;51.30;;;;;;5031150;28;20569;-50
2021/08/10 00:05:36;;;;;;;3.67;2.97;;;24.00;51.30;;;;;;5018541;28;20193;-51
2021/08/10 00:08:02;;;;;;;4.33;2.43;;;23.90;51.30;;;;;;5025258;28;20213;-51
2021/08/10 00:13:14;;;;;;;3.07;2.57;;;23.90;51.40;;;;;;5003441;23;20288;-48
2021/08/10 00:15:40;;;;;;;2.60;2.40;;;23.90;51.10;;;;;;4988228;28;20449;-50
2021/08/10 00:18:07;;;;;;;3.77;2.40;;;23.90;51.20;;;;;;4987628;28;20445;-52
2021/08/10 00:20:33;;;;;;;4.63;2.90;;;23.90;51.20;;;;;;4988888;28;20449;-47
2021/08/10 00:22:59;;;;;;;5.07;3.07;;;23.80;51.40;;;;;;4988404;28;20441;-48
2021/08/10 00:25:25;;;;;;;5.70;3.43;;;23.70;51.40;;;;;;4990542;28;20195;-48
2021/08/10 00:27:50;;;;;;;5.03;2.57;;;23.70;51.70;;;;;;4990074;28;20472;-48
2021/08/10 00:30:16;;;;;;;2.37;2.17;;;23.60;52.10;;;;;;4993177;28;20611;-47
2021/08/10 00:32:41;;;;;;;3.03;2.83;;;23.50;52.30;;;;;;4987928;28;20645;-47
2021/08/10 00:35:08;;;;;;;4.47;2.23;;;23.50;52.10;;;;;;4989591;28;20190;-50
2021/08/10 00:37:33;;;;;;;5.83;2.77;;;23.50;52.10;;;;;;4991540;28;20555;-51
2021/08/10 00:39:59;;;;;;;2.57;2.37;;;23.50;52.10;;;;;;4990044;28;20445;-48
2021/08/10 00:42:25;;;;;;;2.90;2.60;;;23.50;52.30;;;;;;4987680;28;20186;-47
2021/08/10 00:44:51;;;;;;;3.53;2.73;;;23.30;52.20;;;;;;4993152;28;20209;-48
2021/08/10 00:47:16;;;;;;;3.33;2.70;;;23.30;52.40;;;;;;4992562;28;20186;-48
2021/08/10 00:49:42;;;;;;;3.67;2.63;;;23.30;52.70;;;;;;4982237;28;20477;-47
2021/08/10 00:52:08;;;;;;;2.53;2.33;;;23.30;52.40;;;;;;4992748;28;20997;-50
2021/08/10 00:54:33;;;;;;;3.20;2.50;;;23.40;52.30;;;;;;4991151;28;20220;-48
2021/08/10 00:56:59;;;;;;;3.90;2.50;;;23.20;52.70;;;;;;4991926;28;20230;-48
2021/08/10 00:59:25;;;;;;;3.47;2.13;;;23.00;53.20;;;;;;4989018;28;20218;-49
2021/08/10 01:01:51;;;;;;;2.53;2.30;;;22.90;53.60;;;;;;4991934;28;20210;-48
2021/08/10 01:04:17;;;;;;;3.53;2.67;;;22.90;53.60;;;;;;4990726;28;20454;-48
2021/08/10 01:06:48;;;;;;;3.43;2.90;;;22.90;53.80;;;;;;4983904;28;20191;-47
2021/08/10 01:09:21;;;;;;;6.50;2.80;;;23.00;53.70;;;;;;4985300;28;20234;-51
2021/08/10 01:12:02;;;;;;;3.40;2.60;;;23.10;53.10;;;;;;4985207;28;20466;-48
2021/08/10 01:14:50;;;;;;;7.60;2.80;;;23.10;53.00;;;;;;4985498;28;20456;-51
2021/08/10 01:17:24;;;;;;;7.90;2.70;;;23.10;53.20;;;;;;4990697;28;20483;-48
2021/08/10 01:20:06;;;;;;;2.33;2.13;;;23.00;53.20;;;;;;4983404;28;21465;-49
2021/08/10 01:22:36;;;;;;;5.03;2.63;;;22.60;54.20;;;;;;4982295;28;20446;-48
2021/08/10 01:25:21;;;;;;;2.60;2.20;;;22.60;54.40;;;;;;4987602;28;20453;-47
2021/08/10 01:28:19;;;;;;;2.60;2.40;;;22.50;54.60;;;;;;4986234;28;20454;-47
2021/08/10 01:31:06;;;;;;;3.37;2.40;;;22.60;54.50;;;;;;4988682;28;20450;-48
2021/08/10 01:33:37;;;;;;;5.00;2.03;;;22.70;54.60;;;;;;4989223;28;20446;-48
2021/08/10 01:36:04;;;;;;;2.77;2.57;;;22.80;54.30;;;;;;4985780;28;20937;-50
2021/08/10 01:38:33;;;;;;;2.57;2.37;;;22.90;54.00;;;;;;4985420;28;20460;-48
2021/08/10 01:41:00;;;;;;;3.77;2.50;;;22.80;53.90;;;;;;4984303;28;20449;-47
2021/08/10 01:43:27;;;;;;;4.70;2.37;;;22.80;53.90;;;;;;4982846;28;20486;-50
2021/08/10 01:45:54;;;;;;;2.73;2.50;;;22.90;53.90;;;;;;4982058;28;21021;-48
2021/08/10 01:48:20;;;;;;;5.63;2.10;;;22.90;53.90;;;;;;4987236;28;20500;-50
2021/08/10 01:50:46;;;;;;;4.93;2.70;;;22.80;53.50;;;;;;4987107;28;20438;-48
2021/08/10 01:53:12;;;;;;;3.40;2.40;;;22.90;53.80;;;;;;4983362;28;20516;-48
2021/08/10 01:55:39;;;;;;;2.77;2.53;;;22.70;54.10;;;;;;4985305;28;20191;-52
2021/08/10 01:58:06;;;;;;;2.60;2.20;;;22.70;54.50;;;;;;4983494;28;20504;-48
2021/08/10 02:00:36;;;;;;;3.87;2.57;;;22.80;54.20;;;;;;4987547;28;20445;-51
2021/08/10 02:03:06;;;;;;;2.90;2.43;;;22.80;54.10;;;;;;4983199;28;20476;-48
2021/08/10 02:05:32;;;;;;;3.50;2.70;;;22.90;53.80;;;;;;4986483;28;20449;-48
2021/08/10 02:07:59;;;;;;;2.40;2.20;;;22.90;53.70;;;;;;4982099;28;20450;-50
2021/08/10 02:10:25;;;;;;;2.50;2.30;;;22.90;53.60;;;;;;4985815;28;20449;-52
2021/08/10 02:12:51;;;;;;;6.00;2.50;;;22.90;53.40;;;;;;4977161;28;20481;-49
2021/08/10 02:15:17;;;;;;;6.33;3.10;;;22.90;53.20;;;;;;4984077;28;20449;-52
2021/08/10 02:17:43;;;;;;;2.13;2.00;;;22.50;53.60;;;;;;4979675;28;20597;-50
2021/08/10 02:20:12;;;;;;;3.77;2.93;;;22.30;54.90;;;;;;4986459;28;20273;-48
2021/08/10 02:22:41;;;;;;;2.63;2.43;;;22.20;55.30;;;;;;4982185;28;20191;-48
2021/08/10 02:25:10;;;;;;;2.77;2.57;;;22.20;55.00;;;;;;4981128;28;20525;-50
2021/08/10 02:27:50;;;;;;;2.40;2.20;;;22.30;54.50;;;;;;4983331;28;20457;-51
2021/08/10 02:30:20;;;;;;;4.07;2.47;;;22.40;54.40;;;;;;4983201;28;21089;-48
2021/08/10 02:32:47;;;;;;;3.00;2.50;;;22.40;54.60;;;;;;4984667;28;20541;-52
2021/08/10 02:35:18;;;;;;;2.90;2.60;;;22.50;54.50;;;;;;4990888;28;20496;-48
2021/08/10 02:37:45;;;;;;;2.90;2.70;;;22.50;54.30;;;;;;4987739;28;20441;-53
2021/08/10 02:40:12;;;;;;;5.07;2.73;;;22.40;54.20;;;;;;4985407;28;20446;-48
2021/08/10 02:42:39;;;;;;;2.93;2.67;;;22.10;54.60;;;;;;4983892;28;20541;-51
2021/08/10 02:45:08;;;;;;;3.73;3.10;;;22.10;54.80;;;;;;4987338;28;20971;-49
2021/08/10 02:47:33;;;;;;;3.67;2.60;;;21.90;55.40;;;;;;4984530;28;20485;-47
2021/08/10 02:49:59;;;;;;;3.33;2.83;;;22.00;55.20;;;;;;4991136;28;20513;-48
2021/08/10 02:52:24;;;;;;;2.90;2.60;;;21.90;55.50;;;;;;4987840;28;20345;-51
2021/08/10 02:54:50;;;;;;;3.80;2.80;;;21.90;54.90;;;;;;4986158;28;20206;-51
2021/08/10 02:57:35;;;;;;;2.77;2.50;;;21.90;55.10;;;;;;4988418;28;20206;-48
2021/08/10 03:00:02;;;;;;;2.90;2.70;;;22.00;55.50;;;;;;4990464;28;20464;-52
2021/08/10 03:02:35;;;;;;;4.17;2.67;;;22.00;55.50;;;;;;4981671;28;20437;-47
2021/08/10 03:05:07;;;;;;;3.73;2.20;;;22.00;55.50;;;;;;4987431;28;20453;-48
2021/08/10 03:07:33;;;;;;;4.47;3.00;;;22.00;55.50;;;;;;4988532;28;20809;-50
2021/08/10 03:10:01;;;;;;;2.70;2.50;;;22.10;55.00;;;;;;4979161;28;20497;-48
2021/08/10 03:12:31;;;;;;;2.77;2.43;;;22.00;55.00;;;;;;4980436;28;20469;-50
2021/08/10 03:14:58;;;;;;;3.17;2.47;;;22.00;55.30;;;;;;4986081;28;20442;-48
2021/08/10 03:17:26;;;;;;;6.10;2.90;;;21.90;55.30;;;;;;4979589;28;21285;-49
2021/08/10 03:19:54;;;;;;;3.90;2.70;;;21.90;55.50;;;;;;4988594;28;20983;-49
2021/08/10 03:22:22;;;;;;;3.20;2.60;;;21.80;56.10;;;;;;4978252;28;20605;-48
2021/08/10 03:24:49;;;;;;;3.00;2.50;;;21.90;55.90;;;;;;4984620;28;20452;-49
2021/08/10 03:27:16;;;;;;;5.10;2.90;;;22.10;55.30;;;;;;4984876;28;21145;-49
2021/08/10 03:29:43;;;;;;;3.73;2.37;;;22.10;55.40;;;;;;4980676;28;20532;-52
2021/08/10 03:32:09;;;;;;;3.10;2.80;;;22.20;55.20;;;;;;4986184;28;20448;-47
2021/08/10 03:34:36;;;;;;;3.00;2.70;;;22.20;54.90;;;;;;4993410;28;20450;-52
2021/08/10 03:37:02;;;;;;;3.07;2.13;;;22.30;54.60;;;;;;4990893;28;20536;-52
2021/08/10 03:39:28;;;;;;;4.50;2.80;;;22.20;54.20;;;;;;4996839;28;20536;-47
2021/08/10 03:41:54;;;;;;;2.67;2.47;;;22.20;54.50;;;;;;4994105;28;20244;-52
2021/08/10 03:44:21;;;;;;;4.60;2.57;;;22.30;54.90;;;;;;4992657;28;20892;-50
2021/08/10 03:46:49;;;;;;;2.67;2.47;;;22.20;55.00;;;;;;4997195;28;20954;-51
2021/08/10 03:49:20;;;;;;;3.20;2.90;;;22.20;54.90;;;;;;4992476;28;20492;-49
2021/08/10 03:51:46;;;;;;;2.57;2.37;;;22.30;54.90;;;;;;4988409;28;20780;-47
2021/08/10 03:54:12;;;;;;;2.83;2.53;;;22.40;55.00;;;;;;4986922;28;20442;-48
2021/08/10 03:56:39;;;;;;;2.63;2.43;;;22.20;54.20;;;;;;4986511;28;20198;-48
2021/08/10 03:59:07;;;;;;;2.80;2.30;;;22.30;54.70;;;;;;4990140;28;20196;-48
2021/08/10 04:01:34;;;;;;;2.83;2.63;;;22.30;55.00;;;;;;4987520;28;20441;-49
2021/08/10 04:04:00;;;;;;;2.63;2.40;;;22.40;54.70;;;;;;4986751;28;20445;-52
2021/08/10 04:06:27;;;;;;;3.33;2.50;;;22.50;54.40;;;;;;4989113;28;20442;-48
2021/08/10 04:08:53;;;;;;;2.70;2.40;;;22.50;54.20;;;;;;4984324;28;20574;-47
2021/08/10 04:11:19;;;;;;;1.83;1.73;;;22.50;54.10;;;;;;4990553;28;20476;-51
2021/08/10 04:13:49;;;;;;;2.77;2.50;;;22.50;53.90;;;;;;4990508;28;20297;-50
2021/08/10 04:16:17;;;;;;;2.70;2.50;;;22.50;53.90;;;;;;4983141;28;20809;-48
2021/08/10 04:18:43;;;;;;;4.47;2.80;;;22.40;54.20;;;;;;4989866;28;20437;-47
2021/08/10 04:21:09;;;;;;;2.90;2.60;;;22.40;54.50;;;;;;4988224;28;20883;-51
2021/08/10 04:23:34;;;;;;;2.83;2.63;;;22.40;54.60;;;;;;4991798;28;20540;-48
2021/08/10 04:26:00;;;;;;;3.00;2.67;;;22.00;54.50;;;;;;4989500;28;20209;-50
2021/08/10 04:28:26;;;;;;;2.80;2.60;;;22.00;55.10;;;;;;4988557;28;20686;-52
2021/08/10 04:30:52;;;;;;;2.80;2.60;;;22.00;55.30;;;;;;4986722;28;20226;-49
2021/08/10 04:33:18;;;;;;;3.57;2.80;;;22.20;55.10;;;;;;4986845;28;20973;-52
2021/08/10 04:35:43;;;;;;;4.20;3.13;;;22.30;55.00;;;;;;4989784;28;20214;-51
2021/08/10 04:38:09;;;;;;;3.10;2.80;;;22.20;54.40;;;;;;4986610;28;20203;-52
2021/08/10 04:40:35;;;;;;;3.03;2.73;;;22.10;54.60;;;;;;4989351;28;20217;-51
2021/08/10 04:43:01;;;;;;;4.37;2.37;;;22.10;54.70;;;;;;4991695;28;20198;-52
2021/08/10 04:45:27;;;;;;;3.03;2.73;;;21.80;55.60;;;;;;4982417;28;20594;-49
2021/08/10 04:47:53;;;;;;;2.83;2.63;;;21.70;56.10;;;;;;4989330;28;20207;-53
2021/08/10 04:50:19;;;;;;;3.10;2.60;;;21.80;56.20;;;;;;4990356;28;20990;-48
2021/08/10 04:52:45;;;;;;;3.03;2.70;;;21.90;55.70;;;;;;4991548;28;20210;-49
2021/08/10 04:55:11;;;;;;;3.13;2.83;;;22.00;55.60;;;;;;4991025;28;20942;-50
2021/08/10 04:57:36;;;;;;;3.10;2.17;;;22.10;55.70;;;;;;4982730;28;20187;-48
2021/08/10 05:00:04;;;;;;;5.37;3.23;;;22.30;55.40;;;;;;4985390;28;20501;-48
2021/08/10 05:02:29;;;;;;;2.70;2.50;;;22.30;55.00;;;;;;4986716;28;20606;-48
2021/08/10 05:04:55;;;;;;;2.63;2.17;;;22.40;55.20;;;;;;4985964;28;20477;-51
2021/08/10 05:07:21;;;;;;;3.30;2.40;;;22.50;55.10;;;;;;4984635;28;20199;-48
2021/08/10 05:09:46;;;;;;;2.90;2.63;;;22.50;54.80;;;;;;4986221;28;20231;-48
2021/08/10 05:12:12;;;;;;;3.47;2.60;;;22.50;54.70;;;;;;4984563;28;20246;-50
2021/08/10 05:14:37;;;;;;;4.90;2.90;;;22.50;54.20;;;;;;4985505;28;20234;-51
2021/08/10 05:17:03;;;;;;;2.23;2.10;;;22.20;54.40;;;;;;4984205;28;20704;-52
2021/08/10 05:19:29;;;;;;;3.40;3.10;;;22.00;55.80;;;;;;4985325;28;20222;-51
2021/08/10 05:21:55;;;;;;;3.30;3.03;;;21.80;55.60;;;;;;4983753;28;20528;-52
2021/08/10 05:24:20;;;;;;;11.00;2.87;;;21.70;55.70;;;;;;4984674;28;20199;-50
2021/08/10 05:26:46;;;;;;;4.97;3.37;;;21.60;55.90;;;;;;4980734;28;20206;-51
2021/08/10 05:29:11;;;;;;;2.90;2.30;;;21.70;56.10;;;;;;4982840;28;20287;-52
2021/08/10 05:31:37;;;;;;;5.07;2.70;;;21.70;55.90;;;;;;4985263;28;20677;-50
2021/08/10 05:34:03;;;;;;;5.60;2.73;;;21.90;55.60;;;;;;4983078;28;20214;-51
2021/08/10 05:36:28;;;;;;;3.27;2.17;;;22.10;55.20;;;;;;4982799;28;20191;-52
2021/08/10 05:38:54;;;;;;;2.87;2.67;;;22.20;54.80;;;;;;4983219;28;20205;-52
2021/08/10 05:41:21;;;;;;;3.87;2.67;;;22.30;54.60;;;;;;4982648;28;20233;-51
2021/08/10 05:43:48;;;;;;;4.50;2.90;;;22.40;54.40;;;;;;4985672;28;20599;-51
2021/08/10 05:46:14;;;;;;;2.70;2.50;;;22.40;54.20;;;;;;4982524;28;20446;-52
2021/08/10 05:48:39;;;;;;;3.63;3.00;;;22.10;55.00;;;;;;4983882;28;20684;-50
2021/08/10 05:51:05;;;;;;;2.90;2.60;;;22.10;55.30;;;;;;4983300;28;20187;-50
2021/08/10 05:53:32;;;;;;;3.27;2.80;;;22.20;55.00;;;;;;4977797;28;20235;-50
2021/08/10 05:56:00;;;;;;;4.23;3.30;;;22.30;54.80;;;;;;4982080;28;20217;-48
2021/08/10 05:58:26;;;;;;;5.43;2.60;;;22.30;54.80;;;;;;4982282;28;20488;-47
2021/08/10 06:00:52;;;;;;;4.80;3.40;;;22.40;54.60;;;;;;4983512;28;20968;-46
2021/08/10 06:03:18;;;;;;;3.30;3.00;;;22.30;54.90;;;;;;4981446;28;20496;-47
2021/08/10 06:05:43;;;;;;;5.43;3.10;;;22.40;54.70;;;;;;4983262;28;20203;-47
2021/08/10 06:08:09;;;;;;;4.73;2.80;;;22.50;54.50;;;;;;4986324;28;20474;-48
2021/08/10 06:10:35;;;;;;;3.43;2.87;;;22.60;54.30;;;;;;4986146;28;20278;-47
2021/08/10 06:13:01;;;;;;;6.30;2.93;;;22.70;54.30;;;;;;4986005;28;20266;-50
2021/08/10 06:15:27;;;;;;;3.00;2.40;;;22.70;55.00;;;;;;4989228;28;20193;-47
2021/08/10 06:17:53;;;;;;;2.60;2.33;;;22.80;55.20;;;;;;4980948;28;20241;-47
2021/08/10 06:20:20;;;;;;;3.73;2.47;;;22.90;54.90;;;;;;4987162;28;20448;-49
2021/08/10 06:22:45;;;;;;;7.23;2.93;;;23.10;54.70;;;;;;4986352;28;20457;-46
2021/08/10 06:25:11;;;;;;;3.13;2.83;;;23.30;54.50;;;;;;4988565;28;20449;-46
2021/08/10 06:27:37;;;;;;;4.57;2.73;;;23.50;54.20;;;;;;4985089;28;20195;-48
2021/08/10 06:30:04;;;;;;;3.23;2.93;;;23.60;53.80;;;;;;4985032;28;20993;-50
2021/08/10 06:32:30;;;;;;;5.00;3.20;;;23.70;53.60;;;;;;4979567;28;20209;-46
2021/08/10 06:34:56;;;;;;;5.27;3.10;;;23.70;53.40;;;;;;4975532;28;20437;-51
2021/08/10 06:37:21;;;;;;;3.20;2.83;;;23.70;53.30;;;;;;4983114;28;20642;-46
2021/08/10 06:39:47;;;;;;;5.50;3.03;;;23.50;53.80;;;;;;4980437;28;20562;-50
2021/08/10 06:42:12;;;;;;;3.70;2.63;;;23.60;54.10;;;;;;4985167;28;20203;-50
2021/08/10 06:44:38;;;;;;;5.67;3.20;;;23.80;54.00;;;;;;4982989;28;20194;-47
2021/08/10 06:47:03;;;;;;;5.17;2.73;;;24.00;53.90;;;;;;4979497;28;21786;-47
2021/08/10 06:49:29;;;;;;;5.80;2.80;;;24.10;53.60;;;;;;4981733;28;20649;-46
2021/08/10 06:51:55;;;;;;;3.60;2.60;;;24.30;53.50;;;;;;4981640;28;20195;-50
2021/08/10 06:54:21;;;;;;;4.03;3.23;;;24.40;53.30;;;;;;4987399;28;20227;-50
2021/08/10 06:56:46;;;;;;;5.57;2.77;;;24.50;53.20;;;;;;4985038;28;21222;-47
2021/08/10 06:59:12;;;;;;;3.20;2.80;;;24.60;53.10;;;;;;4983187;28;20233;-46
2021/08/10 07:01:37;;;;;;;5.10;3.07;;;24.70;52.70;;;;;;4990750;28;20226;-47
2021/08/10 07:04:03;;;;;;;3.67;3.20;;;24.80;52.60;;;;;;4989348;28;20202;-48
2021/08/10 07:06:30;;;;;;;3.30;2.60;;;24.70;51.80;;;;;;4989262;28;20190;-47
2021/08/10 07:08:59;;;;;;;6.80;2.57;;;24.70;52.50;;;;;;4985850;28;20242;-50
2021/08/10 07:11:25;;;;;;;4.70;3.27;;;24.90;52.10;;;;;;4990798;28;20486;-46
2021/08/10 07:13:50;;;;;;;5.50;2.97;;;25.00;52.10;;;;;;4990109;28;20532;-47
2021/08/10 07:16:16;;;;;;;3.70;3.00;;;25.20;52.00;;;;;;4988325;28;20222;-46
2021/08/10 07:18:42;;;;;;;4.30;2.90;;;25.30;51.80;;;;;;4973756;28;20202;-47
2021/08/10 07:21:07;;;;;;;3.47;3.03;;;25.30;51.40;;;;;;4991249;28;20277;-46
2021/08/10 07:23:33;;;;;;;3.40;3.10;;;25.20;51.90;;;;;;4991987;28;20202;-47
2021/08/10 07:25:58;;;;;;;4.30;3.17;;;25.20;51.90;;;;;;4990279;28;20194;-47
2021/08/10 07:28:24;;;;;;;5.40;3.10;;;25.20;52.10;;;;;;4990315;28;20305;-47
2021/08/10 07:30:49;;;;;;;3.60;2.80;;;25.10;52.90;;;;;;4985088;28;20203;-51
2021/08/10 07:33:15;;;;;;;4.10;3.03;;;25.10;53.10;;;;;;4978158;28;20710;-48
2021/08/10 07:35:40;;;;;;;4.17;3.07;;;25.10;52.70;;;;;;4987326;28;20210;-48
2021/08/10 07:38:06;;;;;;;3.20;2.90;;;25.20;52.60;;;;;;4982139;28;20414;-47
2021/08/10 07:40:32;;;;;;;7.20;2.80;;;25.10;52.40;;;;;;4986256;28;20252;-49
2021/08/10 07:42:58;;;;;;;2.97;2.30;;;25.10;52.70;;;;;;4981955;28;20275;-48
2021/08/10 07:45:23;;;;;;;5.17;3.10;;;25.30;52.30;;;;;;4979815;28;20202;-47
2021/08/10 07:47:49;;;;;;;5.27;3.47;;;25.40;51.70;;;;;;4984872;28;20319;-47
2021/08/10 07:50:15;;;;;;;3.40;3.03;;;25.50;52.50;;;;;;4991667;28;20245;-50
2021/08/10 07:52:41;;;;;;;3.80;2.87;;;25.70;52.30;;;;;;4986234;28;20191;-50
2021/08/10 07:55:08;;;;;;;5.47;3.10;;;25.90;52.10;;;;;;4984822;28;20549;-47
2021/08/10 07:57:34;;;;;;;4.05;2.58;;;26.00;51.80;;;;;;4976975;28;20435;-47
2021/08/10 07:59:59;;;;;;;4.07;2.60;;;26.10;50.80;;;;;;4985563;28;20210;-48
2021/08/10 08:02:25;;;;;;;3.77;3.17;;;25.90;51.10;;;;;;4987682;28;20445;-47
2021/08/10 08:04:50;;;;;;;3.30;3.00;;;25.40;52.50;;;;;;4982492;28;20645;-47
2021/08/10 08:07:16;;;;;;;3.03;2.60;;;25.30;52.40;;;;;;4988839;28;20281;-51
2021/08/10 08:09:42;;;;;;;12.20;2.93;;;25.20;52.50;;;;;;4985074;28;20258;-47
2021/08/10 08:12:07;;;;;;;3.00;2.80;;;24.90;52.90;;;;;;4988277;28;20237;-48
2021/08/10 08:14:33;;;;;;;2.70;2.50;;;25.00;53.20;;;;;;4987130;28;20187;-45
2021/08/10 08:16:59;;;;;;;3.43;2.80;;;24.70;53.00;;;;;;4984968;28;20230;-46
2021/08/10 08:19:24;;;;;;;3.10;2.80;;;24.60;53.90;;;;;;4984491;28;20191;-47
2021/08/10 08:21:50;;;;;;;4.73;2.67;;;24.80;53.20;;;;;;4987893;28;20250;-48
2021/08/10 08:24:16;;;;;;;2.93;2.73;;;25.00;52.60;;;;;;4993697;28;20604;-46
2021/08/10 08:26:41;;;;;;;4.33;2.77;;;25.30;52.40;;;;;;4983409;28;20226;-47
2021/08/10 08:29:07;;;;;;;4.17;3.00;;;25.30;51.80;;;;;;4992529;28;20230;-47
2021/08/10 08:31:32;;;;;;;2.60;2.40;;;25.30;52.20;;;;;;4991364;28;20206;-48
2021/08/10 08:33:58;;;;;;;2.93;2.63;;;25.60;52.10;;;;;;4989555;28;20282;-47
2021/08/10 08:36:24;;;;;;;3.67;2.47;;;25.80;51.50;;;;;;4986714;28;20210;-47
2021/08/10 08:38:49;;;;;;;3.27;2.53;;;26.00;50.90;;;;;;4988828;28;20199;-47
2021/08/10 08:41:15;;;;;;;2.53;2.33;;;26.20;49.40;;;;;;4990002;28;20194;-48
2021/08/10 08:43:41;;;;;;;4.90;2.53;;;26.20;49.10;;;;;;4989181;28;20658;-52
2021/08/10 08:46:07;;;;;;;3.33;2.30;;;26.30;49.20;;;;;;4986652;28;20187;-46
2021/08/10 08:48:33;;;;;;;4.83;2.60;;;26.50;48.70;;;;;;4989946;28;20225;-49
2021/08/10 08:51:08;;;;;;;6.67;2.40;;;26.60;48.00;;;;;;4994278;28;20203;-48
2021/08/10 08:53:34;;;;;;;5.13;2.53;;;26.80;47.90;;;;;;4981640;28;20775;-46
2021/08/10 08:56:00;;;;;;;5.23;2.97;;;26.80;47.40;;;;;;4994465;28;20444;-46
2021/08/10 08:58:26;;;;;;;2.20;2.10;;;26.90;48.20;;;;;;4988155;28;20848;-48
2021/08/10 09:00:51;;;;;;;3.07;2.60;;;27.00;47.00;;;;;;4981927;28;20817;-47
2021/08/10 09:03:17;;;;;;;2.80;2.33;;;27.10;47.00;;;;;;4985907;28;20841;-51
2021/08/10 09:05:47;;;;;;;7.10;2.50;;;27.20;47.00;;;;;;4986923;28;20198;-46
2021/08/10 09:08:30;;;;;;;3.50;3.20;;;27.30;46.60;;;;;;4982555;28;20227;-46
2021/08/10 09:11:17;;;;;;;2.67;2.27;;;27.40;46.30;;;;;;4988222;28;20450;-46
2021/08/10 09:14:01;;;;;;;2.63;2.43;;;27.50;45.70;;;;;;4986430;28;20882;-47
2021/08/10 09:16:27;;;;;;;2.40;2.20;;;27.60;45.40;;;;;;4989271;28;20481;-50
2021/08/10 09:18:54;;;;;;;2.97;2.20;;;27.60;45.20;;;;;;4985681;28;20433;-46
2021/08/10 09:21:22;;;;;;;3.13;2.20;;;27.60;45.40;;;;;;4989793;28;20434;-51
2021/08/10 09:23:51;;;;;;;2.30;2.10;;;27.60;44.70;;;;;;4985703;28;20524;-48
2021/08/10 09:26:20;;;;;;;4.00;3.03;;;27.60;45.10;;;;;;4988791;28;20442;-46
2021/08/10 09:28:46;;;;;;;3.73;2.63;;;27.80;45.20;;;;;;4986855;28;20539;-50
2021/08/10 09:31:37;;;;;;;3.40;2.27;;;27.90;45.10;;;;;;4987368;28;20497;-47
2021/08/10 09:34:16;;;;;;;5.17;2.37;;;27.90;44.40;;;;;;4984872;28;20442;-50
2021/08/10 09:36:42;;;;;;;4.53;2.30;;;27.90;44.60;;;;;;4983897;28;20426;-47
2021/08/10 09:39:08;;;;;;;2.60;2.40;;;27.70;44.80;;;;;;4987457;28;20548;-46
2021/08/10 09:41:34;;;;;;;4.97;2.77;;;27.70;45.00;;;;;;4985571;28;20638;-46
2021/08/10 09:44:14;;;;;;;3.47;2.43;;;27.90;45.00;;;;;;4987318;28;20198;-47
2021/08/10 09:46:58;;;;;;;4.90;2.90;;;27.90;44.70;;;;;;4986938;28;20655;-46
2021/08/10 09:49:40;;;;;;;3.03;2.27;;;28.10;44.90;;;;;;4981105;28;20899;-49
2021/08/10 09:52:06;;;;;;;4.97;2.70;;;28.10;44.70;;;;;;4984317;28;20429;-47
2021/08/10 09:54:32;;;;;;;2.43;2.20;;;28.10;44.50;;;;;;4985994;28;20599;-46
2021/08/10 09:57:02;;;;;;;3.00;2.70;;;28.10;44.00;;;;;;4988795;28;20244;-46
2021/08/10 09:59:45;;;;;;;3.37;2.83;;;28.30;43.90;;;;;;4985597;28;20187;-47
2021/08/10 10:02:23;;;;;;;3.00;2.40;;;28.60;44.10;;;;;;4985724;28;20453;-49
2021/08/10 10:04:54;;;;;;;4.87;2.40;;;28.50;43.60;;;;;;4986428;28;20933;-47
2021/08/10 10:07:20;;;;;;;2.27;2.07;;;28.40;44.20;;;;;;4982280;28;20450;-46
2021/08/10 10:09:46;;;;;;;2.97;2.43;;;28.70;43.90;;;;;;4981902;28;20485;-50
2021/08/10 10:12:13;;;;;;;4.93;3.70;;;28.90;42.90;;;;;;4978684;28;20505;-50
2021/08/10 10:14:40;;;;;;;3.93;2.40;;;29.00;42.70;;;;;;4979770;28;20434;-46
2021/08/10 10:17:08;;;;;;;6.17;2.40;;;29.10;41.70;;;;;;4974769;28;20477;-47
2021/08/10 10:19:39;;;;;;;2.30;2.10;;;29.20;41.40;;;;;;4983685;28;20874;-48
2021/08/10 10:22:14;;;;;;;2.53;2.33;;;29.20;41.40;;;;;;4978400;28;20446;-46
2021/08/10 10:24:47;;;;;;;2.93;2.57;;;29.20;41.30;;;;;;4980672;28;20445;-47
2021/08/10 10:27:12;;;;;;;3.67;2.50;;;29.20;41.30;;;;;;4974462;28;20462;-49
2021/08/10 10:29:40;;;;;;;4.93;2.60;;;29.10;41.40;;;;;;4981988;28;20520;-49
2021/08/10 10:32:06;;;;;;;4.80;2.03;;;29.20;41.90;;;;;;4972819;28;20195;-47
2021/08/10 10:34:35;;;;;;;2.80;2.30;;;29.10;42.00;;;;;;4978767;28;20862;-48
2021/08/10 10:37:02;;;;;;;2.67;2.47;;;29.10;41.90;;;;;;4978159;28;20445;-52
2021/08/10 10:39:31;;;;;;;3.27;2.60;;;29.10;41.50;;;;;;4983252;28;21379;-51
2021/08/10 10:42:02;;;;;;;3.97;2.57;;;29.20;41.80;;;;;;4975638;28;20454;-47
2021/08/10 10:44:46;;;;;;;5.30;2.33;;;29.30;41.80;;;;;;4980108;28;20449;-50
2021/08/10 10:47:21;;;;;;;4.23;3.10;;;29.30;41.60;;;;;;4977117;28;20468;-50
2021/08/10 10:50:14;;;;;;;3.00;2.80;;;29.10;42.10;;;;;;4984047;28;20929;-49
2021/08/10 10:52:56;;;;;;;4.27;2.60;;;29.20;42.50;;;;;;4974170;28;20458;-51
2021/08/10 10:55:31;;;;;;;3.00;2.60;;;29.30;42.40;;;;;;4980509;28;20545;-50
2021/08/10 10:57:57;;;;;;;4.43;2.50;;;29.40;43.30;;;;;;4984992;28;20449;-49
2021/08/10 11:00:23;;;;;;;2.87;2.60;;;29.60;42.30;;;;;;4988688;28;20437;-53
2021/08/10 11:03:12;;;;;;;3.20;2.90;;;29.50;41.50;;;;;;4986598;28;20227;-51
2021/08/10 11:05:38;;;;;;;5.03;3.10;;;29.70;41.70;;;;;;4987805;28;20218;-48
2021/08/10 11:08:05;;;;;;;3.30;3.00;;;29.90;41.10;;;;;;4990054;28;20449;-49
2021/08/10 11:10:42;;;;;;;4.17;2.50;;;29.90;40.50;;;;;;4990776;28;20446;-49
2021/08/10 11:13:17;;;;;;;4.03;2.47;;;30.20;41.00;;;;;;4987855;28;20560;-49
2021/08/10 11:15:45;;;;;;;5.97;2.20;;;30.30;40.60;;;;;;4972798;28;20464;-47
2021/08/10 11:18:11;;;;;;;5.10;2.67;;;30.20;41.50;;;;;;4981041;28;20450;-49
2021/08/10 11:20:59;;;;;;;3.30;2.63;;;30.20;40.50;;;;;;4992239;28;20437;-47
2021/08/10 11:23:26;;;;;;;3.80;2.40;;;30.30;40.20;;;;;;4982164;28;20659;-46
2021/08/10 11:26:08;;;;;;;4.93;2.30;;;30.50;39.80;;;;;;4979490;28;20474;-50
2021/08/10 11:28:49;;;;;;;2.87;2.20;;;30.50;39.20;;;;;;4986385;28;20482;-51
2021/08/10 11:31:32;;;;;;;3.03;2.80;;;30.60;38.50;;;;;;4989123;28;20469;-51
2021/08/10 11:33:58;;;;;;;2.73;2.53;;;30.60;39.30;;;;;;4985950;28;20535;-52
2021/08/10 11:36:25;;;;;;;5.03;2.30;;;30.60;40.00;;;;;;4991417;28;21296;-50
2021/08/10 11:38:53;;;;;;;2.77;2.50;;;30.60;40.00;;;;;;4991441;28;20229;-52
2021/08/10 11:41:30;;;;;;;3.00;2.57;;;30.40;39.20;;;;;;4983167;28;20446;-52
2021/08/10 11:44:02;;;;;;;3.80;2.80;;;30.50;39.70;;;;;;4987340;28;20868;-52
2021/08/10 11:46:33;;;;;;;6.40;3.00;;;30.50;39.30;;;;;;4985385;28;20480;-49
2021/08/10 11:49:07;;;;;;;3.73;2.60;;;30.60;39.50;;;;;;4990557;28;20591;-49
2021/08/10 11:51:38;;;;;;;3.33;2.70;;;30.60;39.70;;;;;;4988141;28;20449;-52
2021/08/10 11:54:07;;;;;;;4.33;2.70;;;30.70;40.00;;;;;;4991744;28;20460;-48
2021/08/10 11:56:39;;;;;;;4.20;2.77;;;30.90;39.80;;;;;;4988820;28;20798;-48
2021/08/10 11:59:09;;;;;;;3.40;2.43;;;30.90;39.40;;;;;;4991603;28;20442;-52
2021/08/10 12:01:37;;;;;;;2.60;2.40;;;30.90;39.60;;;;;;4989936;28;20451;-45
2021/08/10 12:04:15;;;;;;;3.53;2.60;;;30.90;39.30;;;;;;4988118;28;20496;-47
2021/08/10 12:06:43;;;;;;;4.47;2.60;;;30.90;39.80;;;;;;4991375;28;20445;-48
2021/08/10 12:09:14;;;;;;;3.00;2.57;;;30.90;39.90;;;;;;4995094;28;20497;-46
2021/08/10 12:11:42;;;;;;;4.90;3.10;;;30.90;40.40;;;;;;4987673;28;20516;-46
2021/08/10 12:14:13;;;;;;;5.47;2.90;;;30.90;40.60;;;;;;4993370;28;20484;-49
2021/08/10 12:16:57;;;;;;;3.80;2.60;;;30.90;40.80;;;;;;4994612;28;20503;-49
2021/08/10 12:19:41;;;;;;;4.77;3.03;;;31.00;41.40;;;;;;4989123;28;20524;-48
2021/08/10 12:22:14;;;;;;;5.10;2.23;;;31.00;40.70;;;;;;4989564;28;20812;-47
2021/08/10 12:24:40;;;;;;;3.73;2.50;;;31.00;40.80;;;;;;4989763;28;21011;-47
2021/08/10 12:27:07;;;;;;;3.80;2.90;;;31.20;40.70;;;;;;4981260;28;20525;-47
2021/08/10 12:29:41;;;;;;;3.30;3.00;;;31.30;40.40;;;;;;4986209;28;20500;-49
2021/08/10 12:32:28;;;;;;;4.53;3.13;;;31.30;40.90;;;;;;4983518;28;20547;-49
2021/08/10 12:34:55;;;;;;;4.73;3.20;;;31.40;40.00;;;;;;4991424;28;20499;-49
2021/08/10 12:37:31;;;;;;;6.20;2.93;;;31.40;39.10;;;;;;4986740;28;20987;-52
2021/08/10 12:39:57;;;;;;;3.43;2.80;;;31.40;39.50;;;;;;4994174;28;20470;-51
2021/08/10 12:42:23;;;;;;;3.70;2.53;;;31.20;40.90;;;;;;4989005;28;20478;-52
2021/08/10 12:44:53;;;;;;;6.10;3.03;;;31.10;40.60;;;;;;4977768;28;20462;-48
2021/08/10 12:47:31;;;;;;;3.33;3.13;;;31.10;41.10;;;;;;4977954;28;20198;-49
2021/08/10 12:49:57;;;;;;;4.13;3.00;;;31.10;40.80;;;;;;4986784;28;20489;-52
2021/08/10 12:52:39;;;;;;;4.00;2.40;;;31.20;40.20;;;;;;4987951;28;20434;-52
2021/08/10 12:55:05;;;;;;;2.77;2.57;;;31.40;40.30;;;;;;4991469;28;20468;-51
2021/08/10 12:57:33;;;;;;;3.37;3.07;;;31.50;40.30;;;;;;4985503;28;20443;-49